Time;durP1;ratioP1;P1;durP2;ratioP2;P2;SDS_P1;SDS_P2;PMS_P1;PMS_P2;Temp;Humidity;BMP_temperature;BMP_pressure;BME280_temperature;BME280_humidity;BME280_pressure;Samples;Min_cycle;Max_cycle;Signal;HPM_P1;HPM_P2
2022/03/11 00:01:52;;;;;;;13.75;8.68;;;3.60;91.60;;;;;;6101254;23;20017;-81
2022/03/11 00:04:19;;;;;;;16.10;8.88;;;3.50;91.90;;;;;;6102221;23;20449;-80
2022/03/11 00:07:03;;;;;;;15.30;9.25;;;3.50;91.70;;;;;;6129847;23;20024;-80
2022/03/11 00:09:29;;;;;;;15.18;8.85;;;3.40;92.00;;;;;;6102091;23;20021;-80
2022/03/11 00:11:54;;;;;;;12.98;8.57;;;3.40;92.20;;;;;;6150880;23;20017;-81
2022/03/11 00:14:20;;;;;;;18.33;8.60;;;3.30;92.40;;;;;;6102093;23;20077;-80
2022/03/11 00:16:46;;;;;;;13.35;8.52;;;3.70;92.30;;;;;;6101915;23;20025;-80
2022/03/11 00:19:11;;;;;;;15.23;8.50;;;3.30;92.60;;;;;;6101740;23;20053;-80
2022/03/11 00:21:37;;;;;;;12.95;8.82;;;3.20;92.70;;;;;;6150530;23;20025;-81
2022/03/11 00:24:03;;;;;;;15.40;9.82;;;3.20;92.90;;;;;;6150857;23;20116;-80
2022/03/11 00:26:29;;;;;;;15.07;9.13;;;3.10;92.70;;;;;;6101891;23;20080;-81
2022/03/11 00:28:55;;;;;;;14.45;9.68;;;3.10;93.00;;;;;;6077686;23;20096;-81
2022/03/11 00:31:20;;;;;;;15.80;8.77;;;3.30;93.40;;;;;;6150218;23;20056;-80
2022/03/11 00:33:46;;;;;;;14.32;8.93;;;3.30;93.50;;;;;;6150577;23;20025;-80
2022/03/11 00:36:12;;;;;;;15.48;9.32;;;3.40;93.70;;;;;;6125910;23;20021;-80
2022/03/11 00:38:37;;;;;;;24.48;10.32;;;3.10;93.60;;;;;;6125939;23;20472;-82
2022/03/11 00:41:03;;;;;;;17.50;9.50;;;3.10;93.90;;;;;;6125944;23;20025;-80
2022/03/11 00:43:29;;;;;;;14.88;8.77;;;3.10;94.10;;;;;;6101302;23;20013;-80
2022/03/11 00:45:55;;;;;;;15.05;9.40;;;3.00;94.30;;;;;;6101232;23;20081;-80
2022/03/11 00:48:21;;;;;;;15.15;9.45;;;3.00;94.00;;;;;;6101459;23;20018;-81
2022/03/11 00:50:48;;;;;;;18.05;9.55;;;3.00;94.50;;;;;;6150360;23;20013;-80
2022/03/11 00:53:13;;;;;;;18.08;9.00;;;3.00;95.00;;;;;;6101713;23;20092;-80
2022/03/11 00:55:39;;;;;;;17.58;9.52;;;2.90;94.50;;;;;;6125481;23;20128;-80
2022/03/11 00:58:06;;;;;;;18.50;9.00;;;3.10;94.90;;;;;;6150062;23;20017;-80
2022/03/11 01:00:32;;;;;;;18.25;8.27;;;3.40;95.30;;;;;;6101106;23;20024;-80
2022/03/11 01:02:58;;;;;;;21.63;9.43;;;2.90;95.40;;;;;;6125701;23;20021;-81
2022/03/11 01:05:24;;;;;;;16.00;9.25;;;2.90;95.90;;;;;;6100932;23;20330;-81
2022/03/11 01:07:50;;;;;;;12.38;8.48;;;2.80;96.20;;;;;;6125861;23;20096;-80
2022/03/11 01:10:16;;;;;;;15.35;9.30;;;3.00;97.20;;;;;;6101488;23;20014;-81
2022/03/11 01:12:43;;;;;;;18.50;8.68;;;3.10;97.40;;;;;;6125128;23;20022;-80
2022/03/11 01:15:09;;;;;;;15.75;8.77;;;2.90;97.80;;;;;;6125669;23;20017;-80
2022/03/11 01:17:36;;;;;;;19.65;9.55;;;2.90;97.50;;;;;;6125521;23;20381;-80
2022/03/11 01:20:03;;;;;;;15.85;8.50;;;2.90;97.70;;;;;;6125634;23;20384;-80
2022/03/11 01:22:30;;;;;;;13.43;8.45;;;2.90;98.00;;;;;;6125515;23;20021;-81
2022/03/11 01:24:56;;;;;;;16.63;9.95;;;2.90;98.20;;;;;;6125086;23;20349;-80
2022/03/11 01:27:22;;;;;;;16.10;9.70;;;2.90;98.40;;;;;;6125446;23;20013;-81
2022/03/11 01:29:47;;;;;;;14.07;8.63;;;2.90;98.90;;;;;;6125598;23;20116;-81
2022/03/11 01:32:13;;;;;;;16.00;9.45;;;2.90;98.50;;;;;;6125107;23;20442;-81
2022/03/11 01:34:39;;;;;;;15.48;8.90;;;2.90;99.20;;;;;;6100711;23;20048;-81
2022/03/11 01:37:04;;;;;;;17.40;9.77;;;2.90;99.50;;;;;;6101080;23;20021;-80
2022/03/11 01:39:30;;;;;;;17.42;8.68;;;2.80;99.30;;;;;;6125369;23;20049;-81
2022/03/11 01:41:56;;;;;;;20.08;9.57;;;3.10;99.60;;;;;;6101043;23;20406;-80
2022/03/11 01:44:25;;;;;;;17.33;9.43;;;2.80;99.90;;;;;;6098915;23;20060;-80
2022/03/11 01:46:51;;;;;;;17.52;9.20;;;3.10;99.90;;;;;;6095661;23;20025;-81
2022/03/11 01:49:17;;;;;;;19.10;10.45;;;2.80;99.90;;;;;;6096136;23;20018;-80
2022/03/11 01:51:43;;;;;;;20.08;10.30;;;3.10;99.90;;;;;;6095863;23;20014;-80
2022/03/11 01:54:10;;;;;;;14.75;9.57;;;2.90;99.90;;;;;;6071841;23;20080;-80
2022/03/11 01:56:37;;;;;;;20.45;11.27;;;2.90;99.90;;;;;;6120424;23;20449;-80
2022/03/11 01:59:05;;;;;;;16.50;10.05;;;3.00;99.90;;;;;;6071992;23;20372;-81
2022/03/11 02:01:31;;;;;;;19.42;10.98;;;2.90;99.90;;;;;;6071677;23;20049;-80
2022/03/11 02:03:57;;;;;;;20.70;10.10;;;3.00;99.90;;;;;;6071565;23;20026;-81
2022/03/11 02:06:23;;;;;;;18.08;10.27;;;2.90;99.90;;;;;;6071477;23;20021;-81
2022/03/11 02:08:49;;;;;;;18.20;10.15;;;3.10;99.90;;;;;;6071821;23;20113;-80
2022/03/11 02:11:15;;;;;;;21.33;10.57;;;3.00;99.90;;;;;;6072105;23;20025;-81
2022/03/11 02:13:46;;;;;;;17.38;10.73;;;3.00;99.90;;;;;;6071530;23;20014;-80
2022/03/11 02:16:16;;;;;;;20.52;11.38;;;2.90;99.90;;;;;;6071728;23;20021;-80
2022/03/11 02:18:42;;;;;;;19.77;11.07;;;2.90;99.90;;;;;;6095501;23;20510;-80
2022/03/11 02:21:09;;;;;;;18.75;10.60;;;3.20;99.90;;;;;;6071658;23;20017;-81
2022/03/11 02:23:52;;;;;;;20.75;11.55;;;2.90;99.90;;;;;;6071673;23;20022;-80
2022/03/11 02:26:20;;;;;;;21.30;10.90;;;2.90;99.90;;;;;;6119111;23;20021;-81
2022/03/11 02:28:48;;;;;;;17.90;10.90;;;3.00;99.90;;;;;;6072126;23;20029;-80
2022/03/11 02:31:14;;;;;;;19.85;11.73;;;2.80;99.90;;;;;;6071037;23;20097;-80
2022/03/11 02:33:40;;;;;;;22.42;11.45;;;3.20;99.90;;;;;;6095075;23;20056;-80
2022/03/11 02:36:06;;;;;;;24.73;12.48;;;2.90;99.90;;;;;;6095622;23;20029;-80
2022/03/11 02:38:32;;;;;;;21.35;12.68;;;2.90;99.90;;;;;;6071293;23;20480;-80
2022/03/11 02:40:59;;;;;;;21.15;12.27;;;3.00;99.90;;;;;;6071391;23;20022;-80
2022/03/11 02:43:25;;;;;;;25.15;12.70;;;3.30;99.90;;;;;;6119551;23;20070;-80
2022/03/11 02:45:51;;;;;;;24.02;12.65;;;3.20;99.90;;;;;;6091639;23;20475;-80
2022/03/11 02:48:17;;;;;;;21.40;12.02;;;2.80;99.90;;;;;;6100331;23;20040;-80
2022/03/11 02:50:44;;;;;;;26.63;14.27;;;2.80;99.90;;;;;;6124826;23;20014;-80
2022/03/11 02:53:10;;;;;;;25.55;12.48;;;2.80;99.90;;;;;;6076395;23;20581;-80
2022/03/11 02:55:35;;;;;;;25.10;13.82;;;2.80;99.90;;;;;;6100436;23;20539;-80
2022/03/11 02:58:01;;;;;;;25.85;13.77;;;2.70;99.90;;;;;;6076004;23;20021;-80
2022/03/11 03:00:27;;;;;;;24.95;12.20;;;2.70;99.90;;;;;;6100468;23;20021;-81
2022/03/11 03:02:53;;;;;;;25.10;13.70;;;2.60;99.90;;;;;;6100193;23;20017;-80
2022/03/11 03:05:18;;;;;;;22.65;13.63;;;2.60;99.90;;;;;;6099987;23;20022;-82
2022/03/11 03:07:44;;;;;;;26.10;14.43;;;2.50;99.90;;;;;;6075918;23;20222;-80
2022/03/11 03:10:13;;;;;;;22.92;12.63;;;2.50;99.90;;;;;;6124491;23;20032;-80
2022/03/11 03:12:39;;;;;;;27.50;14.63;;;2.50;99.90;;;;;;6100835;23;20014;-80
2022/03/11 03:15:06;;;;;;;23.00;13.45;;;2.50;99.90;;;;;;6100323;23;20449;-80
2022/03/11 03:17:32;;;;;;;24.15;13.35;;;2.40;99.90;;;;;;6100675;23;20089;-80
2022/03/11 03:19:58;;;;;;;25.35;14.73;;;2.40;99.90;;;;;;6100063;23;20052;-80
2022/03/11 03:22:24;;;;;;;25.20;14.40;;;2.40;99.90;;;;;;6100663;23;20025;-80
2022/03/11 03:24:50;;;;;;;29.15;15.50;;;2.80;99.90;;;;;;6100186;23;20017;-80
2022/03/11 03:27:16;;;;;;;24.55;14.60;;;2.30;99.90;;;;;;6100538;23;20357;-80
2022/03/11 03:29:42;;;;;;;21.02;13.38;;;2.30;99.90;;;;;;6124511;23;20018;-80
2022/03/11 03:32:08;;;;;;;24.83;14.48;;;2.20;99.90;;;;;;6124223;23;20018;-80
2022/03/11 03:34:36;;;;;;;27.20;14.50;;;2.20;99.90;;;;;;6100244;23;20385;-80
2022/03/11 03:37:07;;;;;;;28.30;15.30;;;2.60;99.90;;;;;;6052630;23;20017;-81
2022/03/11 03:39:33;;;;;;;27.88;15.13;;;2.20;99.90;;;;;;6124108;23;20026;-79
2022/03/11 03:41:59;;;;;;;28.98;16.23;;;2.10;99.90;;;;;;6124725;23;20705;-79
2022/03/11 03:44:25;;;;;;;32.13;14.50;;;2.10;99.90;;;;;;6099881;23;20021;-80
2022/03/11 03:46:51;;;;;;;27.75;15.32;;;2.10;99.90;;;;;;6076579;23;20026;-79
2022/03/11 03:49:17;;;;;;;31.35;15.63;;;2.00;99.90;;;;;;6126256;23;20036;-80
2022/03/11 03:51:44;;;;;;;33.85;16.90;;;2.00;99.90;;;;;;6126440;23;20049;-80
2022/03/11 03:54:10;;;;;;;26.83;15.40;;;2.00;99.90;;;;;;6101712;23;20017;-80
2022/03/11 03:56:37;;;;;;;31.20;16.15;;;2.00;99.90;;;;;;6077827;23;20512;-80
2022/03/11 03:59:06;;;;;;;29.55;15.95;;;1.90;99.90;;;;;;6125696;23;20088;-80
2022/03/11 04:01:41;;;;;;;27.85;15.90;;;1.90;99.90;;;;;;6126152;23;20481;-79
2022/03/11 04:04:08;;;;;;;28.02;15.77;;;1.90;99.90;;;;;;6150472;23;20079;-79
2022/03/11 04:06:36;;;;;;;30.88;16.88;;;2.10;99.90;;;;;;6101490;23;20028;-79
2022/03/11 04:09:04;;;;;;;30.60;15.75;;;1.80;99.90;;;;;;6078146;23;20028;-79
2022/03/11 04:11:30;;;;;;;29.42;16.85;;;2.30;99.90;;;;;;6126040;23;20024;-79
2022/03/11 04:13:57;;;;;;;28.88;16.10;;;1.80;99.90;;;;;;6077851;23;20017;-79
2022/03/11 04:16:23;;;;;;;33.92;18.13;;;1.70;99.90;;;;;;6125969;23;20084;-79
2022/03/11 04:18:49;;;;;;;31.98;16.40;;;1.80;99.90;;;;;;6126223;23;20014;-79
2022/03/11 04:21:16;;;;;;;31.15;16.55;;;2.00;99.90;;;;;;6101413;23;20017;-79
2022/03/11 04:23:43;;;;;;;32.88;17.83;;;1.70;99.90;;;;;;6102220;23;20036;-79
2022/03/11 04:26:09;;;;;;;32.03;16.92;;;1.70;99.90;;;;;;6100899;23;20022;-79
2022/03/11 04:28:36;;;;;;;30.88;16.65;;;2.00;99.90;;;;;;6101936;23;20070;-79
2022/03/11 04:31:04;;;;;;;28.88;16.58;;;1.60;99.90;;;;;;6125584;23;20019;-80
2022/03/11 04:33:30;;;;;;;34.13;17.02;;;1.80;99.90;;;;;;6126263;23;20708;-80
2022/03/11 04:35:56;;;;;;;31.80;17.40;;;1.60;99.90;;;;;;6101041;23;20029;-79
2022/03/11 04:38:22;;;;;;;33.50;17.08;;;1.80;99.90;;;;;;6101616;23;20029;-80
2022/03/11 04:40:48;;;;;;;31.65;17.00;;;1.60;99.90;;;;;;6125938;23;20075;-79
2022/03/11 04:43:14;;;;;;;32.28;17.00;;;1.50;99.90;;;;;;6101943;23;20392;-79
2022/03/11 04:45:40;;;;;;;32.20;16.92;;;1.50;99.90;;;;;;6076754;23;20021;-79
2022/03/11 04:48:06;;;;;;;31.90;17.75;;;1.50;99.90;;;;;;6101619;23;20318;-79
2022/03/11 04:50:32;;;;;;;31.10;16.30;;;2.00;99.90;;;;;;6125484;23;20024;-80
2022/03/11 04:52:58;;;;;;;34.88;16.42;;;1.50;99.90;;;;;;6101844;23;20021;-79
2022/03/11 04:55:24;;;;;;;31.95;17.38;;;1.50;99.90;;;;;;6125588;23;20021;-79
2022/03/11 04:57:49;;;;;;;28.92;16.35;;;1.40;99.90;;;;;;6101468;23;20050;-80
2022/03/11 05:00:15;;;;;;;30.02;16.70;;;1.40;99.90;;;;;;6101028;23;20017;-79
2022/03/11 05:02:44;;;;;;;29.48;16.73;;;1.30;99.90;;;;;;6125713;23;20461;-80
2022/03/11 05:05:12;;;;;;;31.25;16.98;;;1.40;99.90;;;;;;6125149;23;20032;-80
2022/03/11 05:07:38;;;;;;;32.95;17.40;;;1.60;99.90;;;;;;6125693;23;20018;-79
2022/03/11 05:10:14;;;;;;;31.75;17.63;;;1.40;99.90;;;;;;6077717;23;20017;-79
2022/03/11 05:12:40;;;;;;;31.42;15.95;;;1.30;99.90;;;;;;6125829;23;20024;-79
2022/03/11 05:15:07;;;;;;;29.85;16.83;;;1.30;99.90;;;;;;6101068;23;20044;-79
2022/03/11 05:17:33;;;;;;;29.52;16.52;;;1.30;99.90;;;;;;6125064;23;20956;-79
2022/03/11 05:19:59;;;;;;;30.85;17.80;;;1.20;99.90;;;;;;6125645;23;20013;-80
2022/03/11 05:22:25;;;;;;;36.22;19.50;;;1.20;99.90;;;;;;6101556;23;20485;-79
2022/03/11 05:24:51;;;;;;;36.22;17.80;;;1.20;99.90;;;;;;6101771;23;20416;-79
2022/03/11 05:27:17;;;;;;;33.50;16.48;;;1.20;99.90;;;;;;6101969;23;20044;-79
2022/03/11 05:29:43;;;;;;;32.35;17.10;;;1.50;99.90;;;;;;6126511;23;20775;-79
2022/03/11 05:32:09;;;;;;;30.70;17.60;;;1.20;99.90;;;;;;6077469;23;20020;-79
2022/03/11 05:34:39;;;;;;;31.92;17.90;;;1.20;99.90;;;;;;6102110;23;20493;-79
2022/03/11 05:37:06;;;;;;;35.67;17.45;;;1.10;99.90;;;;;;6101776;23;20344;-79
2022/03/11 05:39:32;;;;;;;32.60;16.30;;;1.10;99.90;;;;;;6077970;23;20050;-79
2022/03/11 05:41:58;;;;;;;28.67;16.17;;;1.10;99.90;;;;;;6126000;23;20056;-79
2022/03/11 05:44:24;;;;;;;30.23;17.77;;;1.40;99.90;;;;;;6101286;23;20405;-79
2022/03/11 05:46:50;;;;;;;32.47;18.27;;;1.00;99.90;;;;;;6076158;23;20025;-80
2022/03/11 05:49:15;;;;;;;32.53;17.70;;;1.10;99.90;;;;;;6125030;23;20025;-79
2022/03/11 05:51:41;;;;;;;31.65;17.38;;;1.10;99.90;;;;;;6124501;23;20018;-79
2022/03/11 05:54:07;;;;;;;31.95;17.00;;;1.10;99.90;;;;;;6100583;23;20024;-80
2022/03/11 05:56:34;;;;;;;31.58;16.60;;;1.10;99.90;;;;;;6100268;23;20021;-79
2022/03/11 05:59:00;;;;;;;32.35;16.52;;;1.10;99.90;;;;;;6100597;23;20017;-79
2022/03/11 06:01:26;;;;;;;30.67;16.58;;;1.10;99.90;;;;;;6123925;23;20025;-79
2022/03/11 06:03:52;;;;;;;34.22;18.33;;;1.00;99.90;;;;;;6100645;23;20053;-79
2022/03/11 06:06:18;;;;;;;33.05;17.23;;;1.00;99.90;;;;;;6100095;23;20449;-79
2022/03/11 06:08:44;;;;;;;34.78;17.48;;;1.00;99.90;;;;;;6100392;23;20024;-79
2022/03/11 06:11:10;;;;;;;32.28;17.65;;;1.00;99.90;;;;;;6100228;23;20025;-79
2022/03/11 06:13:37;;;;;;;30.30;15.63;;;1.00;99.90;;;;;;6076044;23;20069;-79
2022/03/11 06:16:03;;;;;;;34.67;17.27;;;1.00;99.90;;;;;;6076035;23;20637;-79
2022/03/11 06:18:29;;;;;;;32.00;17.38;;;1.00;99.90;;;;;;6124116;23;20017;-80
2022/03/11 06:20:56;;;;;;;29.40;16.63;;;1.40;99.90;;;;;;6076218;23;20110;-79
2022/03/11 06:23:23;;;;;;;34.03;16.75;;;1.00;99.90;;;;;;6100293;23;20079;-79
2022/03/11 06:25:48;;;;;;;30.95;15.50;;;1.10;99.90;;;;;;6076415;23;20096;-79
2022/03/11 06:28:14;;;;;;;39.88;17.05;;;1.10;99.90;;;;;;6124341;23;20499;-79
2022/03/11 06:30:40;;;;;;;31.48;16.35;;;1.10;99.90;;;;;;6124363;23;20422;-80
2022/03/11 06:33:06;;;;;;;32.70;16.70;;;1.40;99.90;;;;;;6076143;23;20496;-79
2022/03/11 06:35:33;;;;;;;37.47;17.48;;;1.80;99.90;;;;;;6100899;23;20075;-79
2022/03/11 06:37:59;;;;;;;31.02;16.92;;;1.20;99.90;;;;;;6100121;23;20029;-79
2022/03/11 06:40:24;;;;;;;30.40;16.17;;;1.20;99.90;;;;;;6100240;23;20021;-79
2022/03/11 06:42:53;;;;;;;29.45;15.98;;;1.20;99.90;;;;;;6075902;23;20063;-80
2022/03/11 06:45:19;;;;;;;32.75;16.65;;;1.20;99.90;;;;;;6077869;23;1098840;-79
2022/03/11 06:47:46;;;;;;;28.80;16.77;;;1.30;99.90;;;;;;6102674;23;20449;-79
2022/03/11 06:50:13;;;;;;;40.50;16.35;;;1.30;99.90;;;;;;6077302;23;20013;-79
2022/03/11 06:52:39;;;;;;;30.08;15.45;;;1.30;99.90;;;;;;6101088;23;20013;-79
2022/03/11 06:55:05;;;;;;;33.78;16.40;;;1.30;99.90;;;;;;6101505;23;20491;-79
2022/03/11 06:57:32;;;;;;;29.02;16.58;;;1.30;99.90;;;;;;6125473;23;20017;-79
2022/03/11 06:59:58;;;;;;;25.88;15.95;;;1.40;99.90;;;;;;6100953;23;20036;-79
2022/03/11 07:02:24;;;;;;;30.67;15.88;;;1.60;99.90;;;;;;6099064;23;20369;-80
2022/03/11 07:04:50;;;;;;;30.15;15.75;;;1.50;99.90;;;;;;6101217;23;20017;-79
2022/03/11 07:07:15;;;;;;;29.25;14.82;;;1.80;99.90;;;;;;6124954;23;20021;-80
2022/03/11 07:09:41;;;;;;;32.30;17.33;;;1.80;99.90;;;;;;6101447;23;20081;-79
2022/03/11 07:12:07;;;;;;;35.10;16.00;;;1.70;99.90;;;;;;6053381;23;20013;-80
2022/03/11 07:14:37;;;;;;;29.77;16.45;;;1.70;99.90;;;;;;6125783;23;20393;-79
2022/03/11 07:17:04;;;;;;;30.10;16.20;;;1.80;99.90;;;;;;6102204;23;20097;-80
2022/03/11 07:19:31;;;;;;;30.15;16.75;;;1.80;99.90;;;;;;6101074;23;20021;-79
2022/03/11 07:21:59;;;;;;;27.92;15.77;;;1.90;99.90;;;;;;6126244;23;20137;-79
2022/03/11 07:24:25;;;;;;;29.70;15.05;;;1.90;99.90;;;;;;6151776;23;20033;-79
2022/03/11 07:26:51;;;;;;;29.15;16.85;;;2.20;99.90;;;;;;6079010;23;20033;-78
2022/03/11 07:29:17;;;;;;;28.63;15.90;;;2.40;99.90;;;;;;6078868;23;20021;-79
2022/03/11 07:31:42;;;;;;;29.42;15.95;;;2.40;99.90;;;;;;6127174;23;20465;-79
2022/03/11 07:34:08;;;;;;;32.67;15.73;;;2.20;99.90;;;;;;6102884;23;20020;-79
2022/03/11 07:36:34;;;;;;;28.73;17.02;;;2.50;99.90;;;;;;6102901;23;20021;-79
2022/03/11 07:39:05;;;;;;;31.88;16.60;;;2.40;99.90;;;;;;6078818;23;20021;-79
2022/03/11 07:41:31;;;;;;;33.10;15.88;;;2.50;99.90;;;;;;6102879;23;20116;-79
2022/03/11 07:43:57;;;;;;;31.00;16.90;;;2.60;99.90;;;;;;6078984;23;20720;-80
2022/03/11 07:46:23;;;;;;;32.63;16.35;;;2.90;99.90;;;;;;6102565;23;20021;-81
2022/03/11 07:48:52;;;;;;;28.83;15.55;;;3.00;99.90;;;;;;6102988;23;20014;-81
2022/03/11 07:51:18;;;;;;;29.95;16.80;;;3.50;99.90;;;;;;6102954;23;20396;-81
2022/03/11 07:53:45;;;;;;;29.60;15.25;;;4.00;99.90;;;;;;6102566;23;20071;-81
2022/03/11 07:56:12;;;;;;;27.10;15.77;;;4.40;99.90;;;;;;6078915;23;20516;-83
2022/03/11 07:58:39;;;;;;;27.58;15.93;;;4.60;99.90;;;;;;6051735;23;20129;-80
2022/03/11 08:01:09;;;;;;;31.55;15.68;;;4.80;99.90;;;;;;6117866;23;20056;-80
2022/03/11 08:03:39;;;;;;;28.08;15.23;;;4.90;99.90;;;;;;6119702;23;20733;-79
2022/03/11 08:06:06;;;;;;;28.38;15.68;;;5.00;99.90;;;;;;6093253;23;20097;-81
2022/03/11 08:08:32;;;;;;;29.27;15.93;;;5.00;99.90;;;;;;6094237;23;20105;-81
2022/03/11 08:10:58;;;;;;;28.70;15.30;;;5.30;99.90;;;;;;6070709;23;20322;-82
2022/03/11 08:13:24;;;;;;;28.92;15.70;;;5.40;99.90;;;;;;6095641;23;20014;-80
2022/03/11 08:15:50;;;;;;;23.92;14.25;;;5.50;99.90;;;;;;6095332;23;20068;-79
2022/03/11 08:18:15;;;;;;;28.00;15.35;;;5.40;98.90;;;;;;6118867;23;20025;-79
2022/03/11 08:20:42;;;;;;;28.45;16.15;;;5.60;99.90;;;;;;6118551;23;20431;-79
2022/03/11 08:23:08;;;;;;;23.45;14.85;;;5.90;98.90;;;;;;6144644;23;20022;-79
2022/03/11 08:25:37;;;;;;;29.15;16.48;;;6.10;98.70;;;;;;6119490;23;20021;-79
2022/03/11 08:28:04;;;;;;;25.20;14.38;;;6.10;97.60;;;;;;6070101;23;20481;-80
2022/03/11 08:30:31;;;;;;;27.70;15.70;;;6.00;97.30;;;;;;6118989;23;20017;-79
2022/03/11 08:32:57;;;;;;;26.80;15.63;;;6.30;97.90;;;;;;6144113;23;20010;-82
2022/03/11 08:35:24;;;;;;;25.98;15.18;;;6.60;97.50;;;;;;6119358;23;20080;-83
2022/03/11 08:37:50;;;;;;;25.35;14.50;;;7.30;97.20;;;;;;6071545;23;20052;-83
2022/03/11 08:40:17;;;;;;;24.33;12.77;;;7.30;94.90;;;;;;6095008;23;20021;-83
2022/03/11 08:42:43;;;;;;;27.42;15.93;;;7.30;93.80;;;;;;6094964;23;20249;-82
2022/03/11 08:45:10;;;;;;;25.75;15.57;;;7.30;94.10;;;;;;6071044;23;20522;-80
2022/03/11 08:47:36;;;;;;;28.13;16.02;;;7.50;94.20;;;;;;6094167;23;20032;-82
2022/03/11 08:50:03;;;;;;;24.38;15.68;;;7.70;93.60;;;;;;6070389;23;20443;-80
2022/03/11 08:52:30;;;;;;;24.58;16.38;;;8.10;92.70;;;;;;6119100;23;20024;-82
2022/03/11 08:54:57;;;;;;;27.17;16.45;;;8.80;92.80;;;;;;6071419;23;20543;-82
2022/03/11 08:57:23;;;;;;;26.42;15.77;;;9.50;92.00;;;;;;6119424;23;20040;-82
2022/03/11 08:59:49;;;;;;;25.85;16.13;;;10.10;89.40;;;;;;6116634;23;20018;-82
2022/03/11 09:02:15;;;;;;;24.67;14.10;;;10.30;89.70;;;;;;6069523;23;20021;-81
2022/03/11 09:04:41;;;;;;;27.75;16.27;;;10.00;86.20;;;;;;6119246;23;20021;-81
2022/03/11 09:07:08;;;;;;;29.98;15.75;;;9.70;86.60;;;;;;6093443;23;20096;-82
2022/03/11 09:09:36;;;;;;;24.23;15.90;;;9.80;86.30;;;;;;6118205;23;20018;-81
2022/03/11 09:12:03;;;;;;;22.25;15.50;;;10.00;85.00;;;;;;6094744;23;20017;-81
2022/03/11 09:14:30;;;;;;;24.02;14.90;;;10.10;85.40;;;;;;6093103;23;20028;-81
2022/03/11 09:16:56;;;;;;;26.90;15.98;;;10.60;81.70;;;;;;6091762;23;20032;-81
2022/03/11 09:19:21;;;;;;;23.98;16.05;;;10.40;82.80;;;;;;6117644;23;20022;-82
2022/03/11 09:21:48;;;;;;;24.55;15.88;;;11.00;80.50;;;;;;6069216;23;20017;-82
2022/03/11 09:24:14;;;;;;;23.85;14.93;;;11.00;80.00;;;;;;6119291;23;20080;-81
2022/03/11 09:26:40;;;;;;;22.10;15.75;;;10.70;78.50;;;;;;6093584;23;20025;-82
2022/03/11 09:29:06;;;;;;;22.08;15.23;;;10.70;80.20;;;;;;6118620;23;20013;-78
2022/03/11 09:31:33;;;;;;;22.23;15.35;;;10.70;77.60;;;;;;6117063;23;20129;-78
2022/03/11 09:33:59;;;;;;;24.42;15.63;;;10.30;77.00;;;;;;6069533;23;20511;-81
2022/03/11 09:36:25;;;;;;;23.88;14.05;;;10.20;77.60;;;;;;6117707;23;20021;-81
2022/03/11 09:38:51;;;;;;;23.23;15.95;;;10.70;76.40;;;;;;6118363;23;20354;-82
2022/03/11 09:41:20;;;;;;;24.80;15.63;;;10.80;76.20;;;;;;6094399;23;20057;-80
2022/03/11 09:43:45;;;;;;;24.48;15.85;;;11.20;75.30;;;;;;6094176;23;20069;-80
2022/03/11 09:46:13;;;;;;;24.92;15.10;;;11.30;74.40;;;;;;6093153;23;20068;-80
2022/03/11 09:48:41;;;;;;;38.45;16.13;;;11.80;73.40;;;;;;6094218;23;20013;-80
2022/03/11 09:51:11;;;;;;;21.30;14.32;;;11.90;72.60;;;;;;6094163;23;20053;-79
2022/03/11 09:53:37;;;;;;;23.58;15.35;;;11.20;71.10;;;;;;6118711;23;20634;-80
2022/03/11 09:56:04;;;;;;;28.10;14.95;;;11.30;71.80;;;;;;6094256;23;20138;-79
2022/03/11 09:58:30;;;;;;;29.15;16.02;;;11.30;71.50;;;;;;6118512;23;20397;-79
2022/03/11 10:00:56;;;;;;;40.30;15.60;;;11.20;71.00;;;;;;6117196;23;20088;-77
2022/03/11 10:03:22;;;;;;;22.73;15.00;;;11.00;72.00;;;;;;6093751;23;20029;-79
2022/03/11 10:05:48;;;;;;;24.25;15.60;;;11.30;71.90;;;;;;6094250;23;20124;-80
2022/03/11 10:08:13;;;;;;;23.55;15.27;;;11.30;71.30;;;;;;6118915;23;20021;-80
2022/03/11 10:10:40;;;;;;;23.45;15.85;;;12.30;70.90;;;;;;6094077;23;20017;-81
2022/03/11 10:13:11;;;;;;;24.45;15.70;;;12.40;69.50;;;;;;6119470;23;20010;-80
2022/03/11 10:15:37;;;;;;;26.42;15.00;;;12.40;69.20;;;;;;6117231;23;20452;-80
2022/03/11 10:18:07;;;;;;;26.92;14.98;;;13.20;68.60;;;;;;6117258;23;20021;-80
2022/03/11 10:20:33;;;;;;;24.35;15.88;;;13.70;66.70;;;;;;6095133;23;20024;-81
2022/03/11 10:22:59;;;;;;;19.67;15.02;;;13.80;66.30;;;;;;6094225;23;20017;-81
2022/03/11 10:25:29;;;;;;;28.85;15.73;;;13.70;66.00;;;;;;6094871;23;20549;-80
2022/03/11 10:28:02;;;;;;;22.65;14.68;;;14.00;64.50;;;;;;6094803;23;20519;-80
2022/03/11 10:30:31;;;;;;;21.27;14.27;;;14.10;63.40;;;;;;6095322;23;20054;-80
2022/03/11 10:32:58;;;;;;;22.88;15.90;;;14.70;63.20;;;;;;6093116;23;20013;-80
2022/03/11 10:35:44;;;;;;;22.45;15.13;;;13.90;63.10;;;;;;6122135;23;20099;-79
2022/03/11 10:38:15;;;;;;;23.13;15.05;;;13.50;63.80;;;;;;6095741;23;20400;-80
2022/03/11 10:40:51;;;;;;;24.80;14.52;;;13.60;63.80;;;;;;6094651;23;20059;-80
2022/03/11 10:43:25;;;;;;;23.98;15.27;;;13.80;63.60;;;;;;6118967;23;20013;-80
2022/03/11 10:45:56;;;;;;;23.95;14.73;;;13.80;62.80;;;;;;6089608;23;20032;-82
2022/03/11 10:48:44;;;;;;;24.90;14.40;;;14.10;62.00;;;;;;6089768;23;20018;-81
2022/03/11 10:51:25;;;;;;;28.77;14.05;;;13.60;61.90;;;;;;6088854;23;20044;-85
2022/03/11 10:53:51;;;;;;;19.92;14.60;;;13.20;62.70;;;;;;6065252;23;20018;-81
2022/03/11 10:56:39;;;;;;;22.95;14.18;;;12.70;62.10;;;;;;6065259;23;20022;-79
2022/03/11 10:59:28;;;;;;;22.00;14.43;;;12.50;64.00;;;;;;6089338;23;20021;-79
2022/03/11 11:01:56;;;;;;;18.90;13.98;;;13.20;63.60;;;;;;6088433;23;20507;-83
2022/03/11 11:04:22;;;;;;;21.02;14.30;;;13.40;63.20;;;;;;6066114;23;20398;-80
2022/03/11 11:06:48;;;;;;;21.63;14.30;;;13.60;62.80;;;;;;6041619;23;20025;-80
2022/03/11 11:09:17;;;;;;;20.90;13.82;;;13.70;62.00;;;;;;6088913;23;20017;-81
2022/03/11 11:11:43;;;;;;;21.30;13.35;;;14.10;61.00;;;;;;6089601;23;20053;-80
2022/03/11 11:14:10;;;;;;;21.75;13.50;;;13.20;61.40;;;;;;6017432;23;20022;-81
2022/03/11 11:16:44;;;;;;;22.92;14.52;;;12.80;61.70;;;;;;6086779;23;20022;-81
2022/03/11 11:19:20;;;;;;;21.55;14.38;;;13.10;62.20;;;;;;6061805;23;20065;-80
2022/03/11 11:21:50;;;;;;;22.27;14.15;;;13.50;60.50;;;;;;6088827;23;20022;-82
2022/03/11 11:24:22;;;;;;;21.70;14.40;;;13.90;59.80;;;;;;6047112;23;20549;-81
2022/03/11 11:26:50;;;;;;;20.55;13.25;;;13.40;58.90;;;;;;6071850;23;20021;-86
2022/03/11 11:29:19;;;;;;;22.27;13.65;;;13.60;59.30;;;;;;6095924;23;20020;-81
2022/03/11 11:31:46;;;;;;;22.20;13.10;;;14.20;59.60;;;;;;6071749;23;20028;-81
2022/03/11 11:34:33;;;;;;;21.55;12.63;;;14.00;58.40;;;;;;6096076;23;20345;-81
2022/03/11 11:37:00;;;;;;;18.67;13.23;;;13.90;58.60;;;;;;6071794;23;20026;-82
2022/03/11 11:39:34;;;;;;;23.38;13.25;;;13.90;58.10;;;;;;6072006;23;20022;-81
2022/03/11 11:42:10;;;;;;;20.92;13.50;;;13.60;59.50;;;;;;6072118;23;20018;-83
2022/03/11 11:44:38;;;;;;;19.83;12.80;;;13.20;60.00;;;;;;6071529;23;20017;-81
2022/03/11 11:47:09;;;;;;;20.83;13.10;;;13.10;60.40;;;;;;6089770;23;20056;-80
2022/03/11 11:49:55;;;;;;;18.90;13.02;;;13.00;60.20;;;;;;6100174;23;20014;-81
2022/03/11 11:52:38;;;;;;;21.48;13.25;;;12.80;60.00;;;;;;6100472;23;20477;-81
2022/03/11 11:55:19;;;;;;;19.20;11.85;;;12.90;60.00;;;;;;6125811;23;20025;-81
2022/03/11 11:57:46;;;;;;;19.08;12.82;;;12.90;59.80;;;;;;6102028;23;20013;-81
2022/03/11 12:00:27;;;;;;;19.75;12.43;;;13.20;61.90;;;;;;6101545;23;20020;-81
2022/03/11 12:02:53;;;;;;;15.80;11.18;;;13.20;59.50;;;;;;6125467;23;20025;-81
2022/03/11 12:05:39;;;;;;;19.08;12.13;;;12.70;57.40;;;;;;6101314;23;20013;-81
2022/03/11 12:08:04;;;;;;;26.58;12.70;;;12.90;60.00;;;;;;6125847;23;20633;-80
2022/03/11 12:10:30;;;;;;;22.63;12.55;;;12.90;59.20;;;;;;6078761;23;20064;-81
2022/03/11 12:12:58;;;;;;;18.05;11.95;;;12.90;59.10;;;;;;6078861;23;20505;-81
2022/03/11 12:15:24;;;;;;;22.75;12.05;;;13.30;59.30;;;;;;6102865;23;20393;-81
2022/03/11 12:17:56;;;;;;;19.92;11.75;;;13.60;59.30;;;;;;6102951;23;20584;-82
2022/03/11 12:20:50;;;;;;;17.85;11.63;;;13.70;59.30;;;;;;6127381;23;20054;-82
2022/03/11 12:23:15;;;;;;;18.05;11.27;;;13.70;57.90;;;;;;6104215;23;20025;-81
2022/03/11 12:25:45;;;;;;;21.55;12.55;;;13.80;58.80;;;;;;6102702;23;20021;-82
2022/03/11 12:28:16;;;;;;;17.75;11.93;;;13.70;57.50;;;;;;6126841;23;20013;-82
2022/03/11 12:30:48;;;;;;;23.23;11.75;;;13.40;56.60;;;;;;6126792;23;20073;-81
2022/03/11 12:33:20;;;;;;;19.67;11.43;;;13.20;56.60;;;;;;6126732;23;20097;-82
2022/03/11 12:35:48;;;;;;;17.92;11.45;;;13.20;58.30;;;;;;6102724;23;20025;-83
2022/03/11 12:38:17;;;;;;;18.10;11.38;;;13.30;57.20;;;;;;6126904;23;20025;-82